createdAt,value
2019-01-28T00:01:36.469Z,15.63
2019-01-28T00:04:04.823Z,13.67
2019-01-28T00:06:33.102Z,15.23
2019-01-28T00:09:01.354Z,13.32
2019-01-28T00:11:29.646Z,18.35
2019-01-28T00:13:57.898Z,21.33
2019-01-28T00:16:26.175Z,32.03
2019-01-28T00:18:54.471Z,13.93
2019-01-28T00:21:22.696Z,13.00
2019-01-28T00:23:50.961Z,12.83
2019-01-28T00:26:19.209Z,19.53
2019-01-28T00:28:47.480Z,15.10
2019-01-28T00:31:15.724Z,15.93
2019-01-28T00:33:44.556Z,10.45
2019-01-28T00:36:12.796Z,21.07
2019-01-28T00:38:41.045Z,24.57
2019-01-28T00:41:09.324Z,20.00
2019-01-28T00:43:37.588Z,17.98
2019-01-28T00:46:05.848Z,10.63
2019-01-28T00:48:34.130Z,13.00
2019-01-28T00:51:02.400Z,19.70
2019-01-28T00:53:30.669Z,17.43
2019-01-28T00:55:58.951Z,26.05
2019-01-28T00:58:27.199Z,16.70
2019-01-28T01:00:55.458Z,20.43
2019-01-28T01:03:23.724Z,22.00
2019-01-28T01:05:51.959Z,22.80
2019-01-28T01:08:20.216Z,19.90
2019-01-28T01:10:48.485Z,24.43
2019-01-28T01:13:16.732Z,24.57
2019-01-28T01:15:45.014Z,18.98
2019-01-28T01:18:13.281Z,19.75
2019-01-28T01:20:41.595Z,25.80
2019-01-28T01:23:09.872Z,18.97
2019-01-28T01:25:38.142Z,27.03
2019-01-28T01:28:06.405Z,26.63
2019-01-28T01:30:34.724Z,30.43
2019-01-28T01:33:03.007Z,32.35
2019-01-28T01:35:31.272Z,26.63
2019-01-28T01:37:59.560Z,30.10
2019-01-28T01:40:27.845Z,23.97
2019-01-28T01:42:56.136Z,26.47
2019-01-28T01:45:24.406Z,28.00
2019-01-28T01:47:52.669Z,22.23
2019-01-28T01:50:21.219Z,19.10
2019-01-28T01:52:49.470Z,22.00
2019-01-28T01:55:17.738Z,31.83
2019-01-28T01:57:46.012Z,20.43
2019-01-28T02:00:16.320Z,26.97
2019-01-28T02:02:44.585Z,23.65
2019-01-28T02:05:12.921Z,27.40
2019-01-28T02:07:41.199Z,24.37
2019-01-28T02:10:14.036Z,22.43
2019-01-28T02:12:42.385Z,29.43
2019-01-28T02:15:15.841Z,22.73
2019-01-28T02:17:44.108Z,21.23
2019-01-28T02:20:12.534Z,26.95
2019-01-28T02:22:40.794Z,23.17
2019-01-28T02:25:11.882Z,20.30
2019-01-28T02:27:40.149Z,20.50
2019-01-28T02:30:14.255Z,20.07
2019-01-28T02:32:42.503Z,16.77
2019-01-28T02:35:10.909Z,23.17
2019-01-28T02:37:39.195Z,16.60
2019-01-28T02:40:15.378Z,14.85
2019-01-28T02:42:43.653Z,21.27
2019-01-28T02:45:13.749Z,23.60
2019-01-28T02:47:42.032Z,22.17
2019-01-28T02:50:17.274Z,17.17
2019-01-28T02:52:45.981Z,25.80
2019-01-28T02:55:15.283Z,20.53
2019-01-28T02:57:43.538Z,23.83
2019-01-28T03:00:17.889Z,22.73
2019-01-28T03:02:46.394Z,19.60
2019-01-28T03:05:15.390Z,15.73
2019-01-28T03:07:43.660Z,24.00
2019-01-28T03:10:19.923Z,20.43
2019-01-28T03:12:48.271Z,18.32
2019-01-28T03:15:17.368Z,22.80
2019-01-28T03:17:45.698Z,19.87
2019-01-28T03:20:15.833Z,21.33
2019-01-28T03:22:44.069Z,19.07
2019-01-28T03:25:14.564Z,19.83
2019-01-28T03:27:42.827Z,19.45
2019-01-28T03:30:13.816Z,21.20
2019-01-28T03:32:42.111Z,20.62
2019-01-28T03:35:10.666Z,19.50
2019-01-28T03:37:38.934Z,16.93
2019-01-28T03:40:10.362Z,23.73
2019-01-28T03:42:39.710Z,22.22
2019-01-28T03:45:11.226Z,20.63
2019-01-28T03:47:41.661Z,14.50
2019-01-28T03:50:12.902Z,21.43
2019-01-28T03:52:41.262Z,21.07
2019-01-28T03:55:11.399Z,17.60
2019-01-28T03:57:39.757Z,17.83
2019-01-28T04:00:24.907Z,22.73
2019-01-28T04:02:53.198Z,26.40
2019-01-28T04:05:22.238Z,22.20
2019-01-28T04:07:50.559Z,19.87
2019-01-28T04:10:23.635Z,22.87
2019-01-28T04:12:52.599Z,20.40
2019-01-28T04:15:23.431Z,22.90
2019-01-28T04:17:51.756Z,19.23
2019-01-28T04:20:21.169Z,17.75
2019-01-28T04:22:49.769Z,19.07
2019-01-28T04:25:18.123Z,21.77
2019-01-28T04:27:46.393Z,17.73
2019-01-28T04:30:17.830Z,22.62
2019-01-28T04:32:46.129Z,18.90
2019-01-28T04:35:14.385Z,25.73
2019-01-28T04:37:42.671Z,25.75
2019-01-28T04:40:12.980Z,18.53
2019-01-28T04:42:41.338Z,20.33
2019-01-28T04:45:12.147Z,21.67
2019-01-28T04:47:40.433Z,16.67
2019-01-28T04:50:16.696Z,20.97
2019-01-28T04:52:45.028Z,22.60
2019-01-28T04:55:14.427Z,21.10
2019-01-28T04:57:42.758Z,22.48
2019-01-28T05:00:13.984Z,22.20
2019-01-28T05:02:42.245Z,22.60
2019-01-28T05:05:10.596Z,21.13
2019-01-28T05:07:38.858Z,20.60
2019-01-28T05:10:10.058Z,20.80
2019-01-28T05:12:38.330Z,28.20
2019-01-28T05:15:09.053Z,16.82
2019-01-28T05:17:37.348Z,22.17
2019-01-28T05:20:14.265Z,20.77
2019-01-28T05:22:42.568Z,21.37
2019-01-28T05:25:12.979Z,26.67
2019-01-28T05:27:41.250Z,27.27
2019-01-28T05:30:23.782Z,21.73
2019-01-28T05:32:52.681Z,30.82
2019-01-28T05:35:22.399Z,34.30
2019-01-28T05:37:50.836Z,20.70
2019-01-28T05:40:25.789Z,26.02
2019-01-28T05:42:54.049Z,23.50
2019-01-28T05:45:24.257Z,24.10
2019-01-28T05:47:52.560Z,27.00
2019-01-28T05:50:20.877Z,22.27
2019-01-28T05:52:49.208Z,20.77
2019-01-28T05:55:18.799Z,23.77
2019-01-28T05:57:47.325Z,28.17
2019-01-28T06:00:25.322Z,25.20
2019-01-28T06:02:53.697Z,22.53
2019-01-28T06:05:22.047Z,25.57
2019-01-28T06:07:52.007Z,26.17
2019-01-28T06:10:20.801Z,20.37
2019-01-28T06:12:49.101Z,29.13
2019-01-28T06:15:18.723Z,29.65
2019-01-28T06:17:47.198Z,30.13
2019-01-28T06:20:25.887Z,25.70
2019-01-28T06:22:54.158Z,30.57
2019-01-28T06:25:23.460Z,21.35
2019-01-28T06:27:51.733Z,26.50
2019-01-28T06:30:28.399Z,32.98
2019-01-28T06:32:56.718Z,26.00
2019-01-28T06:35:25.075Z,24.60
2019-01-28T06:37:53.415Z,25.90
2019-01-28T06:40:32.717Z,27.63
2019-01-28T06:43:01.036Z,21.80
2019-01-28T06:45:29.457Z,21.23
2019-01-28T06:47:57.801Z,30.12
2019-01-28T06:50:26.167Z,27.85
2019-01-28T06:53:03.326Z,24.95
2019-01-28T06:55:31.628Z,28.60
2019-01-28T06:57:59.916Z,28.57
2019-01-28T07:00:30.159Z,24.57
2019-01-28T07:02:58.679Z,28.67
2019-01-28T07:05:27.130Z,28.93
2019-01-28T07:07:55.399Z,30.03
2019-01-28T07:10:23.714Z,25.47
2019-01-28T07:12:51.986Z,28.00
2019-01-28T07:15:22.101Z,25.82
2019-01-28T07:17:54.917Z,26.83
2019-01-28T07:20:24.228Z,23.37
2019-01-28T07:22:52.718Z,22.20
2019-01-28T07:25:21.845Z,32.83
2019-01-28T07:27:50.155Z,29.57
2019-01-28T07:30:27.052Z,28.27
2019-01-28T07:32:55.523Z,26.57
2019-01-28T07:35:23.833Z,26.13
2019-01-28T07:37:52.192Z,29.43
2019-01-28T07:40:22.062Z,26.25
2019-01-28T07:42:50.375Z,30.00
2019-01-28T07:45:24.394Z,24.47
2019-01-28T07:47:52.732Z,29.27
2019-01-28T07:50:22.735Z,29.90
2019-01-28T07:52:51.026Z,32.55
2019-01-28T07:55:19.286Z,25.83
2019-01-28T07:57:47.581Z,33.20
2019-01-28T08:00:19.559Z,28.10
2019-01-28T08:02:47.929Z,25.10
2019-01-28T08:05:17.552Z,31.68
2019-01-28T08:07:45.823Z,25.50
2019-01-28T08:10:16.217Z,27.67
2019-01-28T08:12:44.484Z,23.65
2019-01-28T08:15:15.195Z,24.50
2019-01-28T08:17:43.619Z,28.35
2019-01-28T08:20:16.857Z,30.43
2019-01-28T08:22:45.192Z,25.90
2019-01-28T08:25:15.514Z,32.33
2019-01-28T08:27:43.793Z,25.40
2019-01-28T08:30:26.347Z,28.10
2019-01-28T08:32:55.164Z,24.50
2019-01-28T08:35:24.068Z,24.82
2019-01-28T08:37:52.336Z,26.33
2019-01-28T08:40:21.651Z,29.33
2019-01-28T08:42:49.943Z,20.05
2019-01-28T08:45:18.204Z,20.40
2019-01-28T08:47:46.470Z,21.70
2019-01-28T08:50:17.914Z,20.40
2019-01-28T08:52:46.203Z,22.50
2019-01-28T08:55:17.171Z,23.80
2019-01-28T08:57:45.439Z,25.83
2019-01-28T09:00:19.392Z,21.53
2019-01-28T09:02:47.673Z,25.73
2019-01-28T09:05:17.115Z,21.23
2019-01-28T09:07:45.389Z,22.30
2019-01-28T09:10:16.695Z,24.03
2019-01-28T09:12:45.056Z,24.67
2019-01-28T09:15:20.953Z,23.63
2019-01-28T09:17:49.266Z,20.30
2019-01-28T09:20:20.175Z,20.95
2019-01-28T09:22:48.448Z,18.00
2019-01-28T09:25:17.136Z,20.15
2019-01-28T09:27:45.414Z,19.60
2019-01-28T09:30:26.052Z,19.63
2019-01-28T09:32:54.345Z,17.70
2019-01-28T09:35:22.619Z,21.23
2019-01-28T09:37:50.974Z,19.20
2019-01-28T09:40:21.585Z,21.33
2019-01-28T09:42:49.904Z,16.87
2019-01-28T09:45:20.508Z,16.17
2019-01-28T09:47:48.854Z,18.27
2019-01-28T09:50:17.886Z,18.73
2019-01-28T09:52:46.477Z,20.17
2019-01-28T09:55:15.100Z,15.10
2019-01-28T09:57:43.468Z,17.97
2019-01-28T10:00:26.779Z,15.85
2019-01-28T10:02:55.200Z,13.83
2019-01-28T10:05:23.532Z,14.37
2019-01-28T10:07:51.808Z,14.47
2019-01-28T10:10:20.710Z,17.17
2019-01-28T10:12:49.053Z,13.40
2019-01-28T10:15:28.724Z,16.50
2019-01-28T10:17:55.644Z,20.03
2019-01-28T10:20:35.410Z,13.83
2019-01-28T10:23:05.168Z,12.03
2019-01-28T10:25:33.425Z,13.05
2019-01-28T10:28:01.682Z,12.88
2019-01-28T10:30:32.198Z,16.23
2019-01-28T10:33:00.582Z,13.10
2019-01-28T10:35:30.128Z,14.70
2019-01-28T10:37:58.560Z,12.93
2019-01-28T10:40:32.106Z,16.80
2019-01-28T10:43:00.440Z,18.93
2019-01-28T10:45:28.707Z,14.33
2019-01-28T10:48:00.608Z,13.70
2019-01-28T10:50:27.983Z,16.90
2019-01-28T10:52:56.405Z,14.03
2019-01-28T10:55:25.926Z,19.50
2019-01-28T10:57:54.456Z,18.07
2019-01-28T11:00:34.454Z,14.97
2019-01-28T11:03:02.898Z,18.80
2019-01-28T11:05:31.154Z,13.10
2019-01-28T11:07:59.431Z,14.23
2019-01-28T11:10:28.752Z,13.97
2019-01-28T11:12:57.331Z,13.38
2019-01-28T11:15:30.042Z,15.17
2019-01-28T11:18:00.891Z,14.90
2019-01-28T11:20:29.365Z,13.03
2019-01-28T11:22:57.646Z,13.48
2019-01-28T11:25:31.103Z,18.13
2019-01-28T11:27:59.513Z,14.77
2019-01-28T11:30:46.627Z,15.10
2019-01-28T11:33:15.299Z,14.45
2019-01-28T11:35:43.792Z,12.87
2019-01-28T11:38:12.700Z,16.87
2019-01-28T11:40:41.188Z,12.95
2019-01-28T11:43:09.536Z,14.55
2019-01-28T11:45:41.014Z,12.03
2019-01-28T11:48:09.258Z,15.40
2019-01-28T11:50:37.508Z,14.87
2019-01-28T11:53:05.971Z,17.00
2019-01-28T11:55:34.305Z,13.93
2019-01-28T11:58:02.615Z,13.13
2019-01-28T12:00:41.101Z,17.77
2019-01-28T12:03:09.373Z,14.37
2019-01-28T12:05:37.633Z,15.65
2019-01-28T12:08:06.501Z,18.37
2019-01-28T12:10:34.769Z,15.33
2019-01-28T12:13:03.254Z,14.28
2019-01-28T12:15:31.548Z,17.87
2019-01-28T12:17:59.832Z,15.57
2019-01-28T12:20:28.115Z,16.53
2019-01-28T12:22:56.372Z,15.90
2019-01-28T12:25:24.680Z,15.85
2019-01-28T12:27:52.954Z,15.50
2019-01-28T12:30:29.241Z,13.83
2019-01-28T12:32:57.493Z,13.27
2019-01-28T12:35:25.794Z,16.00
2019-01-28T12:37:54.067Z,17.33
2019-01-28T12:40:23.371Z,16.87
2019-01-28T12:42:52.663Z,15.65
2019-01-28T12:45:28.574Z,13.43
2019-01-28T12:47:58.508Z,16.25
2019-01-28T12:50:27.086Z,17.42
2019-01-28T12:52:55.340Z,15.00
2019-01-28T12:55:25.939Z,16.63
2019-01-28T12:57:54.278Z,19.75
2019-01-28T13:00:26.239Z,15.13
2019-01-28T13:02:54.508Z,15.00
2019-01-28T13:05:24.138Z,17.15
2019-01-28T13:07:52.404Z,16.67
2019-01-28T13:10:25.086Z,16.40
2019-01-28T13:12:53.304Z,25.53
2019-01-28T13:15:30.578Z,14.83
2019-01-28T13:17:58.837Z,17.48
2019-01-28T13:20:27.375Z,20.02
2019-01-28T13:22:55.640Z,15.47
2019-01-28T13:25:28.970Z,17.77
2019-01-28T13:27:57.322Z,15.70
2019-01-28T13:30:37.130Z,15.38
2019-01-28T13:33:07.797Z,17.37
2019-01-28T13:35:36.055Z,18.10
2019-01-28T13:38:04.324Z,16.80
2019-01-28T13:40:32.600Z,18.73
2019-01-28T13:43:00.853Z,13.33
2019-01-28T13:45:29.144Z,16.70
2019-01-28T13:47:57.694Z,18.30
2019-01-28T13:50:26.237Z,17.57
2019-01-28T13:52:54.689Z,18.30
2019-01-28T13:55:23.522Z,22.80
2019-01-28T13:57:51.786Z,16.87
2019-01-28T14:00:23.253Z,20.62
2019-01-28T14:02:51.536Z,18.97
2019-01-28T14:05:19.792Z,19.47
2019-01-28T14:07:48.120Z,23.00
2019-01-28T14:10:18.313Z,20.93
2019-01-28T14:12:46.578Z,17.37
2019-01-28T14:15:23.702Z,21.60
2019-01-28T14:17:52.046Z,20.60
2019-01-28T14:20:22.933Z,22.42
2019-01-28T14:22:51.229Z,22.62
2019-01-28T14:25:19.510Z,20.48
2019-01-28T14:27:50.021Z,21.63
2019-01-28T14:30:26.766Z,22.00
2019-01-28T14:32:55.036Z,18.87
2019-01-28T14:35:23.300Z,18.40
2019-01-28T14:37:51.573Z,18.43
2019-01-28T14:40:22.603Z,20.10
2019-01-28T14:42:50.872Z,20.23
2019-01-28T14:45:19.153Z,22.03
2019-01-28T14:47:47.424Z,20.90
2019-01-28T14:50:21.443Z,20.77
2019-01-28T14:52:49.700Z,17.53
2019-01-28T14:55:18.043Z,23.20
2019-01-28T14:57:46.301Z,22.98
2019-01-28T15:00:20.158Z,21.23
2019-01-28T15:02:48.440Z,20.57
2019-01-28T15:05:16.690Z,19.57
2019-01-28T15:07:44.995Z,23.67
2019-01-28T15:10:16.244Z,25.33
2019-01-28T15:12:47.739Z,22.10
2019-01-28T15:15:37.038Z,29.20
2019-01-28T15:18:06.459Z,24.00
2019-01-28T15:20:34.735Z,25.30
2019-01-28T15:23:03.002Z,23.73
2019-01-28T15:25:31.276Z,21.63
2019-01-28T15:27:59.550Z,29.50
2019-01-28T15:30:29.433Z,25.35
2019-01-28T15:32:58.215Z,26.30
2019-01-28T15:35:26.570Z,24.90
2019-01-28T15:37:54.852Z,28.33
2019-01-28T15:40:25.819Z,30.33
2019-01-28T15:42:54.087Z,30.47
2019-01-28T15:45:31.099Z,27.80
2019-01-28T15:47:59.401Z,31.80
2019-01-28T15:50:27.636Z,31.87
2019-01-28T15:52:55.910Z,30.55
2019-01-28T15:55:29.719Z,29.23
2019-01-28T15:57:57.983Z,35.97
2019-01-28T16:00:28.381Z,40.63
2019-01-28T16:02:56.711Z,33.20
2019-01-28T16:05:24.984Z,34.97
2019-01-28T16:07:53.517Z,46.97
2019-01-28T16:10:21.793Z,41.33
2019-01-28T16:12:50.046Z,41.33
2019-01-28T16:15:21.474Z,41.73
2019-01-28T16:17:49.740Z,34.37
2019-01-28T16:20:18.594Z,33.07
2019-01-28T16:22:47.191Z,41.30
2019-01-28T16:25:15.519Z,41.30
2019-01-28T16:27:44.044Z,37.63
2019-01-28T16:30:26.416Z,37.47
2019-01-28T16:32:51.666Z,45.57
2019-01-28T16:35:21.167Z,36.68
2019-01-28T16:37:50.986Z,44.63
2019-01-28T16:40:21.600Z,34.35
2019-01-28T16:42:50.649Z,28.52
2019-01-28T16:45:19.394Z,37.20
2019-01-28T16:47:47.728Z,34.98
2019-01-28T16:50:26.718Z,26.17
2019-01-28T16:52:51.670Z,27.73
2019-01-28T16:55:19.939Z,31.30
2019-01-28T16:57:48.270Z,38.53
2019-01-28T17:00:19.699Z,35.77
2019-01-28T17:02:48.019Z,33.77
2019-01-28T17:05:16.351Z,29.13
2019-01-28T17:07:44.716Z,40.38
2019-01-28T17:10:14.558Z,37.07
2019-01-28T17:12:42.813Z,43.37
2019-01-28T17:15:13.909Z,48.42
2019-01-28T17:17:42.177Z,47.65
2019-01-28T17:20:19.042Z,45.77
2019-01-28T17:22:47.308Z,50.20
2019-01-28T17:25:18.760Z,58.92
2019-01-28T17:27:47.213Z,59.33
2019-01-28T17:30:32.639Z,59.77
2019-01-28T17:33:00.976Z,53.78
2019-01-28T17:35:29.250Z,59.27
2019-01-28T17:37:57.769Z,48.47
2019-01-28T17:40:28.379Z,64.83
2019-01-28T17:42:56.656Z,37.23
2019-01-28T17:45:25.867Z,38.80
2019-01-28T17:47:54.143Z,29.53
2019-01-28T17:50:24.568Z,23.13
2019-01-28T17:52:52.408Z,17.97
2019-01-28T17:55:20.665Z,18.12
2019-01-28T17:57:49.390Z,16.48
2019-01-28T18:00:29.622Z,14.73
2019-01-28T18:02:58.297Z,17.70
2019-01-28T18:05:26.626Z,15.20
2019-01-28T18:07:54.907Z,16.73
2019-01-28T18:10:23.192Z,15.33
2019-01-28T18:12:51.468Z,14.03
2019-01-28T18:15:21.683Z,16.10
2019-01-28T18:17:50.072Z,17.00
2019-01-28T18:20:18.604Z,13.60
2019-01-28T18:22:47.614Z,12.03
2019-01-28T18:25:24.982Z,12.20
2019-01-28T18:27:53.350Z,13.67
2019-01-28T18:30:28.833Z,11.43
2019-01-28T18:32:57.182Z,14.03
2019-01-28T18:35:25.700Z,14.80
2019-01-28T18:37:53.985Z,13.33
2019-01-28T18:40:22.263Z,16.60
2019-01-28T18:42:50.621Z,16.77
2019-01-28T18:45:19.939Z,17.27
2019-01-28T18:47:48.545Z,13.17
2019-01-28T18:50:18.567Z,13.70
2019-01-28T18:52:47.192Z,14.03
2019-01-28T18:55:17.814Z,14.00
2019-01-28T18:57:46.076Z,12.93
2019-01-28T19:00:19.568Z,13.73
2019-01-28T19:02:47.821Z,9.30
2019-01-28T19:05:18.122Z,12.10
2019-01-28T19:07:48.695Z,8.90
2019-01-28T19:10:22.562Z,10.63
2019-01-28T19:12:52.459Z,9.50
2019-01-28T19:15:25.011Z,9.00
2019-01-28T19:18:00.872Z,11.25
2019-01-28T19:20:30.815Z,9.23
2019-01-28T19:22:59.115Z,9.83
2019-01-28T19:25:27.363Z,8.47
2019-01-28T19:27:55.640Z,9.13
2019-01-28T19:30:23.907Z,7.78
2019-01-28T19:32:52.165Z,8.90
2019-01-28T19:35:20.677Z,8.97
2019-01-28T19:37:48.928Z,10.60
2019-01-28T19:40:18.860Z,10.40
2019-01-28T19:42:47.187Z,11.13
2019-01-28T19:45:17.797Z,9.40
2019-01-28T19:47:46.184Z,13.60
2019-01-28T19:50:17.810Z,10.53
2019-01-28T19:52:46.802Z,11.15
2019-01-28T19:55:16.528Z,10.23
2019-01-28T19:57:44.594Z,10.87
2019-01-28T20:00:26.090Z,10.43
2019-01-28T20:02:54.805Z,10.60
2019-01-28T20:05:24.287Z,11.93
2019-01-28T20:07:52.803Z,11.60
2019-01-28T20:10:21.695Z,11.08
2019-01-28T20:12:49.974Z,15.98
2019-01-28T20:15:20.365Z,10.03
2019-01-28T20:17:52.404Z,10.00
2019-01-28T20:20:21.975Z,10.60
2019-01-28T20:22:50.258Z,15.13
2019-01-28T20:25:19.285Z,12.40
2019-01-28T20:27:47.571Z,14.03
2019-01-28T20:30:23.995Z,11.93
2019-01-28T20:33:00.327Z,14.13
2019-01-28T20:35:30.108Z,13.50
2019-01-28T20:38:01.726Z,11.00
2019-01-28T20:40:29.998Z,15.03
2019-01-28T20:42:58.302Z,10.67
2019-01-28T20:45:27.357Z,14.13
2019-01-28T20:47:58.185Z,12.90
2019-01-28T20:50:33.880Z,12.43
2019-01-28T20:53:02.188Z,14.47
2019-01-28T20:55:30.497Z,11.10
2019-01-28T20:57:58.821Z,13.43
2019-01-28T21:00:28.962Z,10.10
2019-01-28T21:02:57.314Z,13.13
2019-01-28T21:05:26.415Z,13.58
2019-01-28T21:07:55.979Z,10.90
2019-01-28T21:10:24.274Z,12.27
2019-01-28T21:12:53.554Z,12.40
2019-01-28T21:15:22.517Z,14.77
2019-01-28T21:17:50.862Z,9.43
2019-01-28T21:20:20.666Z,7.12
2019-01-28T21:22:49.587Z,9.90
2019-01-28T21:25:22.501Z,10.90
2019-01-28T21:27:50.895Z,10.50
2019-01-28T21:30:22.050Z,12.50
2019-01-28T21:32:50.488Z,13.23
2019-01-28T21:35:20.420Z,10.23
2019-01-28T21:37:50.319Z,8.93
2019-01-28T21:40:18.563Z,7.53
2019-01-28T21:42:46.854Z,11.65
2019-01-28T21:45:15.764Z,13.65
2019-01-28T21:47:53.208Z,9.20
2019-01-28T21:50:22.401Z,9.63
2019-01-28T21:52:50.663Z,8.30
2019-01-28T21:55:18.922Z,9.50
2019-01-28T21:57:47.194Z,10.83
2019-01-28T22:00:15.802Z,7.10
2019-01-28T22:02:44.066Z,8.23
2019-01-28T22:05:12.403Z,11.53
2019-01-28T22:07:40.686Z,8.17
2019-01-28T22:10:13.833Z,8.87
2019-01-28T22:12:42.103Z,8.47
2019-01-28T22:15:17.650Z,11.97
2019-01-28T22:17:46.073Z,9.15
2019-01-28T22:20:17.087Z,10.53
2019-01-28T22:22:45.498Z,11.07
2019-01-28T22:25:16.083Z,10.50
2019-01-28T22:27:45.551Z,8.75
2019-01-28T22:30:21.811Z,9.27
2019-01-28T22:32:50.144Z,8.83
2019-01-28T22:35:18.563Z,9.45
2019-01-28T22:37:46.903Z,10.60
2019-01-28T22:40:16.694Z,7.47
2019-01-28T22:42:44.967Z,11.13
2019-01-28T22:45:15.927Z,8.00
2019-01-28T22:47:44.378Z,8.40
2019-01-28T22:50:15.031Z,9.78
2019-01-28T22:52:43.325Z,8.90
2019-01-28T22:55:14.422Z,9.20
2019-01-28T22:57:42.680Z,10.63
2019-01-28T23:00:21.521Z,8.78
2019-01-28T23:02:49.789Z,12.30
2019-01-28T23:05:18.052Z,9.10
2019-01-28T23:07:46.314Z,9.93
2019-01-28T23:10:14.639Z,8.80
2019-01-28T23:12:42.897Z,9.83
2019-01-28T23:15:11.180Z,10.47
2019-01-28T23:17:39.439Z,8.80
2019-01-28T23:20:09.118Z,9.60
2019-01-28T23:22:37.375Z,9.63
2019-01-28T23:25:06.591Z,14.60
2019-01-28T23:27:34.849Z,9.97
2019-01-28T23:30:03.113Z,9.67
2019-01-28T23:32:31.376Z,8.50
2019-01-28T23:34:59.648Z,12.23
2019-01-28T23:37:27.915Z,11.27
2019-01-28T23:39:56.177Z,10.53
2019-01-28T23:42:24.450Z,11.88
2019-01-28T23:44:52.724Z,7.80
2019-01-28T23:47:20.993Z,9.43
2019-01-28T23:49:49.274Z,10.43
2019-01-28T23:52:24.730Z,8.50
2019-01-28T23:54:47.535Z,12.50
2019-01-28T23:57:15.791Z,9.50
2019-01-28T23:59:44.058Z,8.90
